createdAt,value
2022-12-31T00:01:53.175Z,60.70
2022-12-31T00:04:20.446Z,60.70
2022-12-31T00:06:47.822Z,60.00
2022-12-31T00:09:14.750Z,60.10
2022-12-31T00:11:41.726Z,60.10
2022-12-31T00:14:08.711Z,59.70
2022-12-31T00:16:38.547Z,59.70
2022-12-31T00:19:07.671Z,59.60
2022-12-31T00:21:35.338Z,59.50
2022-12-31T00:24:03.508Z,59.50
2022-12-31T00:26:32.372Z,59.20
2022-12-31T00:29:00.718Z,59.20
2022-12-31T00:31:30.626Z,59.00
2022-12-31T00:33:58.379Z,59.00
2022-12-31T00:36:28.458Z,58.60
2022-12-31T00:38:57.627Z,58.40
2022-12-31T00:41:26.316Z,57.70
2022-12-31T00:43:53.458Z,57.70
2022-12-31T00:46:21.857Z,57.60
2022-12-31T00:48:48.877Z,57.50
2022-12-31T00:51:18.544Z,57.30
2022-12-31T00:53:45.927Z,57.10
2022-12-31T00:56:19.547Z,56.90
2022-12-31T00:58:46.844Z,56.50
2022-12-31T01:01:16.738Z,56.30
2022-12-31T01:03:44.195Z,56.10
2022-12-31T01:06:11.119Z,56.10
2022-12-31T01:08:38.275Z,56.40
2022-12-31T01:11:24.150Z,56.00
2022-12-31T01:13:55.590Z,55.60
2022-12-31T01:16:28.825Z,55.40
2022-12-31T01:19:02.091Z,55.10
2022-12-31T01:21:29.957Z,54.80
2022-12-31T01:23:58.229Z,54.70
2022-12-31T01:26:25.219Z,55.00
2022-12-31T01:28:52.196Z,54.80
2022-12-31T01:31:21.310Z,54.60
2022-12-31T01:33:48.864Z,54.40
2022-12-31T01:36:25.944Z,53.70
2022-12-31T01:38:54.766Z,53.00
2022-12-31T01:41:26.065Z,52.60
2022-12-31T01:43:55.309Z,51.70
2022-12-31T01:46:37.474Z,51.30
2022-12-31T01:49:26.725Z,50.50
2022-12-31T01:52:22.422Z,50.00
2022-12-31T01:55:01.610Z,49.90
2022-12-31T01:57:29.538Z,48.80
2022-12-31T01:59:57.092Z,49.20
2022-12-31T02:02:24.381Z,48.50
2022-12-31T02:04:55.682Z,47.90
2022-12-31T02:07:23.231Z,47.70
2022-12-31T02:09:50.271Z,47.60
2022-12-31T02:12:17.314Z,47.70
2022-12-31T02:14:50.892Z,47.90
2022-12-31T02:17:29.049Z,47.70
2022-12-31T02:20:11.258Z,47.60
2022-12-31T02:22:56.735Z,47.70
2022-12-31T02:25:47.908Z,47.70
2022-12-31T02:28:33.507Z,47.60
2022-12-31T02:31:17.159Z,47.50
2022-12-31T02:34:03.958Z,47.50
2022-12-31T02:36:36.220Z,47.60
2022-12-31T02:39:06.085Z,47.60
2022-12-31T02:41:51.788Z,47.60
2022-12-31T02:44:24.551Z,47.60
2022-12-31T02:47:14.871Z,47.60
2022-12-31T02:50:00.332Z,47.60
2022-12-31T02:52:48.988Z,47.50
2022-12-31T02:55:28.221Z,47.60
2022-12-31T02:58:02.341Z,47.60
2022-12-31T03:00:50.846Z,47.70
2022-12-31T03:03:20.346Z,47.80
2022-12-31T03:05:49.832Z,47.90
2022-12-31T03:08:24.857Z,47.80
2022-12-31T03:10:52.335Z,47.90
2022-12-31T03:13:19.540Z,48.10
2022-12-31T03:15:46.510Z,46.10
2022-12-31T03:18:16.413Z,45.90
2022-12-31T03:21:08.001Z,45.50
2022-12-31T03:23:39.090Z,45.70
2022-12-31T03:26:10.783Z,46.30
2022-12-31T03:28:39.559Z,47.70
2022-12-31T03:31:07.435Z,46.80
2022-12-31T03:33:39.932Z,47.60
2022-12-31T03:36:11.035Z,47.60
2022-12-31T03:38:38.235Z,47.70
2022-12-31T03:41:05.546Z,47.70
2022-12-31T03:43:32.799Z,47.60
2022-12-31T03:46:01.527Z,47.80
2022-12-31T03:48:28.674Z,47.60
2022-12-31T03:50:55.715Z,47.80
2022-12-31T03:53:22.675Z,47.90
2022-12-31T03:55:53.591Z,49.60
2022-12-31T03:58:21.613Z,48.70
2022-12-31T04:00:49.135Z,49.40
2022-12-31T04:03:16.187Z,49.40
2022-12-31T04:05:43.240Z,49.70
2022-12-31T04:08:10.154Z,49.20
2022-12-31T04:10:37.119Z,50.20
2022-12-31T04:13:04.754Z,50.10
2022-12-31T04:15:32.155Z,50.40
2022-12-31T04:17:59.096Z,50.70
2022-12-31T04:20:26.163Z,52.00
2022-12-31T04:22:53.070Z,51.00
2022-12-31T04:25:20.176Z,51.20
2022-12-31T04:27:47.081Z,51.40
2022-12-31T04:30:14.960Z,51.70
2022-12-31T04:32:42.150Z,51.80
2022-12-31T04:35:10.154Z,51.90
2022-12-31T04:37:37.320Z,52.00
2022-12-31T04:40:06.703Z,52.10
2022-12-31T04:42:34.947Z,52.10
2022-12-31T04:45:04.110Z,51.90
2022-12-31T04:47:33.214Z,51.80
2022-12-31T04:50:00.164Z,52.10
2022-12-31T04:52:27.058Z,52.00
2022-12-31T04:54:54.084Z,52.00
2022-12-31T04:57:21.117Z,53.00
2022-12-31T04:59:48.126Z,53.10
2022-12-31T05:02:15.230Z,52.20
2022-12-31T05:04:42.407Z,52.00
2022-12-31T05:07:09.309Z,52.00
2022-12-31T05:09:36.296Z,51.60
2022-12-31T05:12:03.352Z,51.70
2022-12-31T05:14:30.280Z,51.70
2022-12-31T05:16:58.339Z,51.80
2022-12-31T05:19:25.502Z,51.60
2022-12-31T05:22:10.827Z,51.20
2022-12-31T05:24:37.888Z,51.00
2022-12-31T05:27:04.794Z,51.00
2022-12-31T05:29:31.747Z,50.80
2022-12-31T05:31:58.658Z,50.90
2022-12-31T05:34:26.706Z,50.20
2022-12-31T05:36:53.799Z,49.60
2022-12-31T05:39:20.736Z,49.30
2022-12-31T05:41:47.720Z,49.20
2022-12-31T05:44:14.672Z,48.60
2022-12-31T05:46:41.597Z,47.80
2022-12-31T05:49:08.530Z,47.90
2022-12-31T05:51:35.604Z,47.90
2022-12-31T05:54:02.471Z,47.90
2022-12-31T05:56:29.382Z,48.10
2022-12-31T05:58:56.415Z,47.80
2022-12-31T06:01:23.481Z,47.70
2022-12-31T06:03:50.576Z,47.80
2022-12-31T06:06:17.587Z,48.00
2022-12-31T06:08:44.439Z,48.10
2022-12-31T06:11:11.363Z,47.70
2022-12-31T06:13:38.245Z,48.20
2022-12-31T06:16:09.695Z,47.80
2022-12-31T06:18:37.902Z,47.50
2022-12-31T06:21:05.125Z,47.60
2022-12-31T06:23:32.309Z,47.20
2022-12-31T06:26:04.162Z,47.10
2022-12-31T06:28:31.184Z,46.80
2022-12-31T06:31:02.229Z,47.10
2022-12-31T06:33:29.668Z,46.80
2022-12-31T06:35:57.893Z,46.70
2022-12-31T06:38:26.132Z,47.10
2022-12-31T06:40:53.424Z,46.20
2022-12-31T06:43:20.785Z,49.80
2022-12-31T06:48:15.894Z,44.30
2022-12-31T06:50:44.082Z,59.40
2022-12-31T06:53:12.900Z,52.30
2022-12-31T06:55:40.416Z,53.70
2022-12-31T06:58:13.488Z,49.70
2022-12-31T07:01:08.735Z,44.80
2022-12-31T07:04:30.870Z,44.80
2022-12-31T07:07:09.262Z,44.20
2022-12-31T07:10:02.807Z,45.20
2022-12-31T07:13:09.261Z,44.70
2022-12-31T07:15:42.394Z,44.00
2022-12-31T07:18:27.725Z,44.80
2022-12-31T07:20:58.196Z,44.20
2022-12-31T07:23:26.707Z,44.00
2022-12-31T07:26:06.094Z,43.70
2022-12-31T07:28:35.159Z,43.10
2022-12-31T07:31:28.906Z,43.10
2022-12-31T07:34:22.839Z,42.70
2022-12-31T07:37:04.806Z,42.10
2022-12-31T07:40:01.141Z,42.70
2022-12-31T07:42:58.517Z,42.30
2022-12-31T07:45:58.430Z,42.00
2022-12-31T07:48:27.762Z,42.10
2022-12-31T07:50:57.476Z,42.20
2022-12-31T07:53:25.267Z,41.60
2022-12-31T07:55:59.795Z,41.60
2022-12-31T07:59:01.383Z,41.30
2022-12-31T08:01:34.760Z,41.90
2022-12-31T08:04:25.040Z,41.30
2022-12-31T08:07:21.108Z,40.30
2022-12-31T08:10:11.301Z,40.30
2022-12-31T08:12:43.707Z,40.70
2022-12-31T08:15:15.455Z,40.60
2022-12-31T08:17:43.289Z,40.40
2022-12-31T08:20:15.971Z,41.40
2022-12-31T08:23:01.494Z,39.80
2022-12-31T08:25:57.263Z,39.70
2022-12-31T08:28:50.640Z,39.50
2022-12-31T08:31:21.475Z,39.40
2022-12-31T08:33:54.296Z,39.50
2022-12-31T08:36:28.687Z,39.20
2022-12-31T08:38:55.825Z,39.00
2022-12-31T08:41:39.033Z,38.90
2022-12-31T08:44:30.719Z,38.80
2022-12-31T08:47:21.633Z,38.20
2022-12-31T08:49:49.580Z,38.20
2022-12-31T08:52:23.206Z,38.20
2022-12-31T08:54:50.874Z,37.70
2022-12-31T08:57:24.193Z,37.30
2022-12-31T09:00:06.864Z,36.90
2022-12-31T09:02:48.270Z,36.70
2022-12-31T09:05:25.817Z,36.30
2022-12-31T09:08:37.535Z,36.30
2022-12-31T09:11:22.785Z,35.70
2022-12-31T09:14:43.605Z,36.00
2022-12-31T09:17:25.007Z,35.30
2022-12-31T09:19:53.366Z,36.10
2022-12-31T09:22:20.961Z,36.20
2022-12-31T09:24:48.421Z,35.90
2022-12-31T09:27:40.155Z,35.40
2022-12-31T09:30:16.241Z,34.90
2022-12-31T09:33:01.432Z,35.10
2022-12-31T09:35:56.803Z,34.60
2022-12-31T09:38:52.350Z,34.00
2022-12-31T09:41:34.445Z,34.40
2022-12-31T09:44:04.891Z,34.00
2022-12-31T09:47:13.655Z,33.50
2022-12-31T09:50:12.637Z,31.50
2022-12-31T09:52:55.450Z,32.80
2022-12-31T09:55:40.442Z,32.40
2022-12-31T09:58:24.609Z,32.60
2022-12-31T10:01:12.553Z,32.40
2022-12-31T10:04:10.103Z,32.20
2022-12-31T10:06:46.143Z,31.90
2022-12-31T10:09:31.139Z,32.10
2022-12-31T10:11:58.253Z,31.20
2022-12-31T10:14:39.910Z,30.90
2022-12-31T10:17:48.406Z,30.50
2022-12-31T10:20:24.720Z,30.10
2022-12-31T10:23:00.652Z,30.20
2022-12-31T10:26:00.640Z,30.00
2022-12-31T10:28:30.362Z,29.60
2022-12-31T10:31:17.796Z,29.90
2022-12-31T10:34:01.075Z,29.50
2022-12-31T10:36:44.887Z,29.40
2022-12-31T10:39:42.874Z,29.40
2022-12-31T10:42:15.759Z,28.80
2022-12-31T10:45:25.561Z,28.70
2022-12-31T10:48:11.131Z,28.00
2022-12-31T10:51:19.132Z,28.10
2022-12-31T10:54:35.702Z,27.50
2022-12-31T10:57:21.701Z,27.10
2022-12-31T11:00:16.048Z,26.50
2022-12-31T11:03:29.817Z,25.80
2022-12-31T11:06:44.669Z,24.00
2022-12-31T11:09:34.523Z,23.60
2022-12-31T11:12:41.981Z,24.30
2022-12-31T11:15:21.604Z,23.70
2022-12-31T11:18:14.924Z,23.80
2022-12-31T11:21:09.024Z,23.70
2022-12-31T11:23:39.785Z,23.70
2022-12-31T11:26:21.527Z,24.00
2022-12-31T11:29:03.721Z,23.20
2022-12-31T11:31:52.627Z,23.90
2022-12-31T11:34:37.935Z,22.90
2022-12-31T11:37:20.129Z,22.70
2022-12-31T11:40:09.651Z,21.90
2022-12-31T11:42:49.595Z,21.60
2022-12-31T11:45:29.119Z,21.60
2022-12-31T11:48:35.716Z,21.50
2022-12-31T11:51:12.685Z,21.30
2022-12-31T11:53:57.671Z,21.50
2022-12-31T11:56:30.042Z,21.00
2022-12-31T11:58:57.450Z,21.20
2022-12-31T12:01:36.283Z,20.80
2022-12-31T12:04:03.793Z,20.40
2022-12-31T12:06:32.986Z,20.50
2022-12-31T12:09:03.580Z,20.10
2022-12-31T12:11:35.125Z,19.90
2022-12-31T12:14:30.160Z,19.80
2022-12-31T12:17:04.322Z,19.60
2022-12-31T12:19:35.872Z,20.00
2022-12-31T12:22:14.706Z,19.40
2022-12-31T12:24:55.797Z,18.90
2022-12-31T12:27:31.887Z,17.80
2022-12-31T12:30:07.807Z,18.10
2022-12-31T12:32:35.795Z,18.30
2022-12-31T12:35:19.899Z,18.30
2022-12-31T12:37:46.785Z,17.90
2022-12-31T12:40:33.645Z,17.90
2022-12-31T12:43:02.270Z,17.70
2022-12-31T12:45:51.164Z,17.90
2022-12-31T12:48:30.060Z,17.50
2022-12-31T12:50:57.488Z,17.50
2022-12-31T12:53:27.421Z,17.70
2022-12-31T12:56:35.220Z,17.20
2022-12-31T12:59:17.972Z,16.70
2022-12-31T13:01:52.882Z,16.80
2022-12-31T13:04:37.062Z,16.90
2022-12-31T13:07:33.120Z,16.90
2022-12-31T13:10:22.456Z,16.60
2022-12-31T13:13:25.426Z,16.80
2022-12-31T13:16:31.558Z,16.90
2022-12-31T13:19:09.871Z,16.50
2022-12-31T13:21:41.824Z,16.80
2022-12-31T13:24:25.411Z,16.70
2022-12-31T13:27:14.412Z,16.40
2022-12-31T13:29:44.460Z,16.10
2022-12-31T13:32:18.201Z,16.30
2022-12-31T13:34:51.609Z,16.20
2022-12-31T13:37:36.746Z,16.10
2022-12-31T13:40:17.640Z,15.80
2022-12-31T13:43:11.336Z,15.90
2022-12-31T13:45:43.336Z,15.80
2022-12-31T13:48:19.144Z,16.10
2022-12-31T13:51:22.210Z,16.00
2022-12-31T13:54:11.404Z,15.70
2022-12-31T13:56:41.815Z,16.10
2022-12-31T13:59:26.580Z,16.10
2022-12-31T14:02:21.407Z,16.00
2022-12-31T14:04:58.587Z,16.20
2022-12-31T14:07:50.495Z,16.40
2022-12-31T14:10:28.361Z,16.20
2022-12-31T14:13:15.584Z,16.60
2022-12-31T14:16:15.834Z,16.60
2022-12-31T14:19:00.562Z,17.10
2022-12-31T14:21:53.022Z,17.30
2022-12-31T14:24:37.099Z,17.20
2022-12-31T14:27:11.057Z,17.50
2022-12-31T14:30:16.594Z,17.70
2022-12-31T14:33:02.405Z,18.70
2022-12-31T14:35:38.367Z,18.00
2022-12-31T14:38:19.151Z,18.20
2022-12-31T14:40:56.804Z,18.20
2022-12-31T14:43:51.216Z,18.40
2022-12-31T14:46:52.081Z,18.30
2022-12-31T14:49:45.437Z,18.40
2022-12-31T14:52:23.097Z,18.20
2022-12-31T14:55:19.628Z,18.80
2022-12-31T14:58:26.013Z,18.80
2022-12-31T15:00:40.209Z,19.20
2022-12-31T15:03:24.443Z,19.20
2022-12-31T15:05:58.606Z,19.00
2022-12-31T15:08:51.919Z,19.30
2022-12-31T15:11:25.522Z,19.10
2022-12-31T15:14:36.903Z,19.40
2022-12-31T15:17:23.499Z,19.30
2022-12-31T15:20:30.118Z,19.90
2022-12-31T15:22:57.393Z,19.60
2022-12-31T15:25:41.514Z,20.30
2022-12-31T15:28:26.688Z,20.20
2022-12-31T15:31:00.413Z,20.00
2022-12-31T15:33:52.769Z,20.40
2022-12-31T15:36:29.308Z,20.50
2022-12-31T15:39:11.491Z,20.70
2022-12-31T15:42:03.058Z,20.40
2022-12-31T15:44:51.141Z,20.90
2022-12-31T15:47:24.954Z,20.60
2022-12-31T15:49:53.835Z,21.20
2022-12-31T15:52:52.244Z,21.20
2022-12-31T15:55:27.449Z,20.90
2022-12-31T15:58:00.190Z,21.60
2022-12-31T16:00:43.248Z,22.00
2022-12-31T16:03:22.515Z,22.20
2022-12-31T16:05:49.901Z,21.90
2022-12-31T16:08:24.005Z,22.30
2022-12-31T16:10:51.233Z,22.20
2022-12-31T16:13:21.762Z,22.30
2022-12-31T16:16:21.327Z,22.20
2022-12-31T16:18:50.245Z,22.40
2022-12-31T16:21:37.872Z,22.20
2022-12-31T16:24:25.967Z,23.10
2022-12-31T16:26:56.458Z,22.10
2022-12-31T16:29:24.273Z,22.10
2022-12-31T16:31:55.922Z,22.10
2022-12-31T16:34:28.268Z,22.10
2022-12-31T16:36:56.321Z,22.10
2022-12-31T16:39:36.257Z,22.20
2022-12-31T16:42:21.757Z,21.90
2022-12-31T16:44:54.337Z,22.00
2022-12-31T16:47:27.832Z,22.00
2022-12-31T16:50:22.506Z,21.90
2022-12-31T16:52:52.199Z,21.90
2022-12-31T16:55:25.430Z,21.90
2022-12-31T16:58:00.274Z,21.90
2022-12-31T17:00:27.719Z,21.80
2022-12-31T17:03:24.569Z,21.90
2022-12-31T17:05:56.132Z,21.80
2022-12-31T17:09:02.369Z,21.80
2022-12-31T17:11:32.067Z,21.80
2022-12-31T17:14:06.634Z,21.80
2022-12-31T17:17:02.788Z,21.80
2022-12-31T17:19:36.740Z,22.20
2022-12-31T17:22:34.307Z,22.80
2022-12-31T17:25:20.116Z,22.80
2022-12-31T17:28:00.441Z,23.00
2022-12-31T17:30:31.476Z,23.10
2022-12-31T17:33:03.895Z,23.50
2022-12-31T17:35:42.997Z,23.40
2022-12-31T17:38:22.348Z,23.60
2022-12-31T17:41:05.635Z,23.50
2022-12-31T17:43:35.539Z,23.80
2022-12-31T17:46:09.070Z,24.10
2022-12-31T17:48:38.498Z,24.20
2022-12-31T17:51:06.078Z,24.50
2022-12-31T17:53:33.245Z,24.70
2022-12-31T17:56:04.791Z,25.00
2022-12-31T17:58:50.469Z,25.00
2022-12-31T18:01:21.325Z,24.50
2022-12-31T18:03:49.105Z,24.90
2022-12-31T18:06:17.356Z,25.10
2022-12-31T18:08:44.456Z,25.10
2022-12-31T18:11:21.232Z,25.20
2022-12-31T18:13:49.221Z,25.00
2022-12-31T18:16:17.559Z,25.40
2022-12-31T18:18:49.310Z,25.40
2022-12-31T18:21:19.717Z,25.50
2022-12-31T18:23:48.390Z,25.90
2022-12-31T18:26:20.554Z,26.00
2022-12-31T18:28:48.489Z,24.90
2022-12-31T18:31:17.958Z,26.10
2022-12-31T18:33:46.868Z,26.20
2022-12-31T18:36:15.829Z,26.10
2022-12-31T18:38:46.016Z,26.10
2022-12-31T18:41:19.664Z,26.10
2022-12-31T18:43:47.138Z,26.20
2022-12-31T18:46:16.628Z,26.40
2022-12-31T18:48:44.938Z,26.60
2022-12-31T18:51:15.893Z,26.60
2022-12-31T18:53:43.126Z,26.50
2022-12-31T18:56:19.315Z,26.50
2022-12-31T18:58:47.157Z,26.40
2022-12-31T19:01:28.148Z,26.60
2022-12-31T19:04:02.395Z,26.40
2022-12-31T19:06:30.587Z,26.70
2022-12-31T19:08:59.145Z,26.60
2022-12-31T19:11:28.074Z,26.60
2022-12-31T19:13:54.995Z,26.60
2022-12-31T19:16:22.112Z,26.80
2022-12-31T19:18:50.736Z,26.70
2022-12-31T19:21:20.160Z,26.90
2022-12-31T19:23:47.147Z,26.90
2022-12-31T19:26:20.039Z,26.70
2022-12-31T19:28:48.068Z,25.70
2022-12-31T19:31:16.128Z,26.70
2022-12-31T19:33:43.691Z,26.60
2022-12-31T19:36:20.804Z,26.90
2022-12-31T19:38:47.786Z,26.90
2022-12-31T19:41:20.238Z,27.10
2022-12-31T19:43:47.908Z,27.20
2022-12-31T19:46:17.098Z,27.50
2022-12-31T19:48:44.877Z,27.80
2022-12-31T19:51:16.648Z,27.80
2022-12-31T19:53:44.215Z,27.80
2022-12-31T19:56:17.279Z,27.80
2022-12-31T19:58:44.219Z,27.80
2022-12-31T20:01:22.841Z,28.10
2022-12-31T20:03:50.722Z,27.90
2022-12-31T20:06:19.151Z,28.30
2022-12-31T20:08:49.386Z,28.20
2022-12-31T20:11:22.626Z,28.30
2022-12-31T20:13:52.155Z,28.10
2022-12-31T20:16:23.040Z,28.50
2022-12-31T20:18:50.731Z,28.80
2022-12-31T20:21:20.703Z,28.90
2022-12-31T20:23:49.277Z,29.50
2022-12-31T20:26:16.865Z,29.80
2022-12-31T20:28:44.259Z,30.00
2022-12-31T20:31:16.972Z,30.10
2022-12-31T20:33:44.729Z,30.60
2022-12-31T20:36:14.208Z,31.40
2022-12-31T20:38:41.617Z,32.10
2022-12-31T20:41:14.189Z,31.60
2022-12-31T20:43:42.034Z,31.30
2022-12-31T20:46:23.366Z,31.40
2022-12-31T20:48:52.058Z,30.80
2022-12-31T20:51:20.222Z,31.10
2022-12-31T20:53:55.615Z,31.20
2022-12-31T20:56:23.846Z,30.70
2022-12-31T20:58:50.906Z,30.60
2022-12-31T21:01:18.606Z,30.40
2022-12-31T21:06:35.175Z,30.10
2022-12-31T21:09:04.875Z,30.00
2022-12-31T21:11:50.317Z,29.80
2022-12-31T21:14:17.453Z,29.70
2022-12-31T21:16:44.491Z,29.80
2022-12-31T21:19:13.692Z,29.60
2022-12-31T21:21:40.768Z,29.60
2022-12-31T21:24:08.000Z,29.40
2022-12-31T21:26:35.550Z,29.30
2022-12-31T21:29:02.452Z,29.30
2022-12-31T21:31:29.376Z,29.50
2022-12-31T21:33:56.289Z,29.40
2022-12-31T21:36:23.336Z,29.40
2022-12-31T21:38:50.269Z,29.20
2022-12-31T21:41:35.833Z,29.00
2022-12-31T21:44:03.212Z,28.90
2022-12-31T21:46:30.512Z,28.80
2022-12-31T21:48:58.918Z,28.90
2022-12-31T21:51:26.920Z,28.80
2022-12-31T21:53:54.007Z,28.80
2022-12-31T21:56:21.738Z,28.90
2022-12-31T21:59:14.053Z,28.70
2022-12-31T22:02:00.222Z,28.90
2022-12-31T22:05:01.036Z,28.90
2022-12-31T22:07:15.147Z,29.00
2022-12-31T22:09:42.039Z,29.10
2022-12-31T22:12:10.139Z,29.10
2022-12-31T22:14:37.120Z,28.90
2022-12-31T22:17:04.067Z,28.80
2022-12-31T22:19:30.895Z,28.90
2022-12-31T22:21:59.059Z,28.90
2022-12-31T22:24:25.944Z,29.70
2022-12-31T22:26:55.650Z,29.30
2022-12-31T22:29:23.629Z,29.10
2022-12-31T22:31:50.507Z,28.80
2022-12-31T22:34:18.131Z,28.80
2022-12-31T22:36:45.232Z,28.70
2022-12-31T22:39:43.276Z,28.80
2022-12-31T22:42:03.823Z,28.60
2022-12-31T22:44:30.683Z,28.60
2022-12-31T22:46:57.909Z,28.60
2022-12-31T22:49:25.764Z,28.50
2022-12-31T22:51:54.985Z,28.70
2022-12-31T22:54:24.443Z,28.70
2022-12-31T22:56:51.455Z,28.80
2022-12-31T22:59:18.437Z,28.80
2022-12-31T23:01:45.328Z,28.70
2022-12-31T23:04:12.349Z,28.90
2022-12-31T23:06:48.012Z,28.90
2022-12-31T23:09:36.021Z,28.80
2022-12-31T23:12:05.479Z,28.80
2022-12-31T23:14:52.785Z,28.60
2022-12-31T23:17:43.659Z,28.60
2022-12-31T23:20:32.964Z,28.80
2022-12-31T23:23:05.787Z,28.80
2022-12-31T23:25:34.459Z,28.80
2022-12-31T23:28:01.495Z,28.80
2022-12-31T23:30:28.770Z,28.60
2022-12-31T23:32:55.835Z,28.70
2022-12-31T23:35:22.953Z,28.80
2022-12-31T23:37:50.024Z,28.80
2022-12-31T23:40:21.141Z,28.50
2022-12-31T23:42:49.793Z,29.30
2022-12-31T23:45:16.765Z,28.20
2022-12-31T23:47:43.899Z,28.30
2022-12-31T23:50:10.868Z,28.10
2022-12-31T23:52:37.821Z,27.90
2022-12-31T23:55:05.978Z,27.70
2022-12-31T23:57:32.898Z,27.50
